Time;durP1;ratioP1;P1;durP2;ratioP2;P2;SDS_P1;SDS_P2;PMS_P1;PMS_P2;Temp;Humidity;BMP_temperature;BMP_pressure;BME280_temperature;BME280_humidity;BME280_pressure;Samples;Min_cycle;Max_cycle;Signal;HPM_P1;HPM_P2
2021/07/28 02:45:12;;;;;;;;;;;23.10;92.50;;;;;;5759390;24;20820;31
2021/07/28 02:47:39;;;;;;;;;;;23.20;92.50;;;;;;4787937;30;19922;-81
2021/07/28 02:50:05;;;;;;;;;;;23.20;92.60;;;;;;4798400;29;20181;-81
2021/07/28 02:52:30;;;;;;;;;;;23.20;92.60;;;;;;4787403;30;19909;-81
2021/07/28 02:54:56;;;;;;;;;;;23.20;92.70;;;;;;4786833;30;19909;-80
2021/07/28 02:57:21;;;;;;;;;;;23.20;92.90;;;;;;4780532;30;19959;-80
2021/07/28 02:59:47;;;;;;;;;;;23.20;93.00;;;;;;4795405;29;19918;-81
2021/07/28 03:02:13;;;;;;;;;;;23.20;93.10;;;;;;4790558;30;20205;-81
2021/07/28 03:04:39;;;;;;;;;;;23.10;93.40;;;;;;4797148;29;20163;-81
2021/07/28 03:07:05;;;;;;;;;;;23.10;93.40;;;;;;4780273;30;19916;-81
2021/07/28 03:09:30;;;;;;;;;;;23.10;93.40;;;;;;4795180;30;20087;-80
2021/07/28 03:11:56;;;;;;;;;;;23.10;93.50;;;;;;4780215;30;20263;-81
2021/07/28 03:14:21;;;;;;;;;;;23.20;93.50;;;;;;4780122;30;20245;-81
2021/07/28 03:16:47;;;;;;;;;;;23.20;93.50;;;;;;4782247;30;19918;-81
2021/07/28 03:19:13;;;;;;;;;;;23.10;93.60;;;;;;4798772;29;19924;-80
2021/07/28 03:21:38;;;;;;;;;;;23.20;93.60;;;;;;4789571;30;19952;-81
2021/07/28 03:24:04;;;;;;;;;;;23.20;93.60;;;;;;4779975;30;19906;-81
2021/07/28 03:26:30;;;;;;;;;;;23.20;93.40;;;;;;4779920;30;20167;-81
2021/07/28 03:28:56;;;;;;;;;;;23.20;93.50;;;;;;4812758;29;19944;-81
2021/07/28 03:31:21;;;;;;;;;;;23.30;93.40;;;;;;4813046;29;19909;-80
2021/07/28 03:33:47;;;;;;;;;;;23.30;93.10;;;;;;4812662;29;19909;-81
2021/07/28 03:36:12;;;;;;;;;;;23.40;93.20;;;;;;4800987;29;20315;-81
2021/07/28 03:38:38;;;;;;;;;;;23.30;93.20;;;;;;4797385;30;19909;-81
2021/07/28 03:41:04;;;;;;;;;;;23.40;93.10;;;;;;4797805;30;20147;-81
2021/07/28 03:43:29;;;;;;;;;;;23.40;93.20;;;;;;4797690;30;19942;-81
2021/07/28 03:45:55;;;;;;;;;;;23.40;93.10;;;;;;4807938;29;20094;-81
2021/07/28 03:48:21;;;;;;;;;;;23.40;93.00;;;;;;4779888;30;20185;-81
2021/07/28 03:50:46;;;;;;;;;;;23.50;93.00;;;;;;4780143;30;19956;-81
2021/07/28 03:53:12;;;;;;;;;;;23.50;92.90;;;;;;4780121;30;19917;-81
2021/07/28 03:55:37;;;;;;;;;;;23.60;92.90;;;;;;4779861;30;19916;-81
2021/07/28 03:58:03;;;;;;;;;;;23.60;92.80;;;;;;4785883;30;19926;-81
2021/07/28 04:00:29;;;;;;;;;;;23.60;92.80;;;;;;4779812;30;19910;-81
2021/07/28 04:02:55;;;;;;;;;;;23.70;92.70;;;;;;4779624;30;19922;-81
2021/07/28 04:05:20;;;;;;;;;;;23.70;92.70;;;;;;4779835;30;19913;-81
2021/07/28 04:07:53;;;;;;;;;;;23.70;92.60;;;;;;4793340;30;19925;-81
2021/07/28 04:10:18;;;;;;;;;;;23.80;92.40;;;;;;4797917;29;19909;-81
2021/07/28 04:12:44;;;;;;;;;;;23.80;92.30;;;;;;4789988;30;19916;-81
2021/07/28 04:15:10;;;;;;;;;;;23.90;92.10;;;;;;4780834;30;20191;-81
2021/07/28 04:17:36;;;;;;;;;;;24.10;91.80;;;;;;4780324;30;19985;-81
2021/07/28 04:20:01;;;;;;;;;;;24.20;91.60;;;;;;4786432;30;19910;-81
2021/07/28 04:22:27;;;;;;;;;;;24.20;91.40;;;;;;4812832;29;19922;-81
2021/07/28 04:24:53;;;;;;;;;;;24.30;91.40;;;;;;4789280;30;20173;-81
2021/07/28 04:27:18;;;;;;;;;;;24.40;91.30;;;;;;4801803;30;20246;-81
2021/07/28 04:29:44;;;;;;;;;;;24.50;91.00;;;;;;4791784;29;19910;-81
2021/07/28 04:32:10;;;;;;;;;;;24.70;90.90;;;;;;4786517;30;19910;-81
2021/07/28 04:34:36;;;;;;;;;;;24.70;90.60;;;;;;4779640;30;20017;-81
2021/07/28 04:37:02;;;;;;;;;;;24.90;90.50;;;;;;4783227;30;19967;-81
2021/07/28 04:39:27;;;;;;;;;;;24.90;90.20;;;;;;4793673;30;19937;-81
2021/07/28 04:41:53;;;;;;;;;;;25.00;90.20;;;;;;4797687;30;19921;-81
2021/07/28 04:44:18;;;;;;;;;;;25.10;89.80;;;;;;4799472;29;19930;-82
2021/07/28 04:46:44;;;;;;;;;;;25.20;90.00;;;;;;4789933;30;20855;-81
2021/07/28 04:49:10;;;;;;;;;;;25.30;89.50;;;;;;4792753;30;19916;-81
2021/07/28 04:51:35;;;;;;;;;;;25.40;88.90;;;;;;4785538;30;19981;-81
2021/07/28 04:54:01;;;;;;;;;;;25.60;88.10;;;;;;4798506;30;19935;-82
2021/07/28 04:56:27;;;;;;;;;;;25.70;87.30;;;;;;4769914;30;19918;-81
2021/07/28 04:58:52;;;;;;;;;;;25.80;86.90;;;;;;4795946;30;20190;-81
2021/07/28 05:01:18;;;;;;;;;;;25.90;86.60;;;;;;4784989;30;20220;-81
2021/07/28 05:03:44;;;;;;;;;;;26.00;86.20;;;;;;4800840;30;19976;-81
2021/07/28 05:06:09;;;;;;;;;;;26.10;85.60;;;;;;4802703;29;19917;-81
2021/07/28 05:08:35;;;;;;;;;;;26.30;85.70;;;;;;4782647;30;19910;-81
2021/07/28 05:11:00;;;;;;;;;;;26.60;84.50;;;;;;4788677;30;20113;-81
2021/07/28 05:13:26;;;;;;;;;;;26.80;82.80;;;;;;4794280;30;19976;-81
2021/07/28 05:15:52;;;;;;;;;;;27.10;82.40;;;;;;4800417;30;19920;-81
2021/07/28 05:18:18;;;;;;;;;;;27.30;79.90;;;;;;4800588;30;19921;-81
2021/07/28 05:20:44;;;;;;;;;;;27.60;79.00;;;;;;4790336;30;19980;-82
2021/07/28 05:23:10;;;;;;;;;;;27.70;78.60;;;;;;4781288;30;19914;-82
2021/07/28 05:25:35;;;;;;;;;;;27.90;78.20;;;;;;4787964;30;19917;-81
2021/07/28 05:28:01;;;;;;;;;;;27.90;77.40;;;;;;4783300;30;19916;-81
2021/07/28 05:30:29;;;;;;;;;;;27.90;78.40;;;;;;4784564;30;19918;-81
2021/07/28 05:32:55;;;;;;;;;;;28.20;77.10;;;;;;4786291;30;19941;-82
2021/07/28 05:35:21;;;;;;;;;;;28.10;73.80;;;;;;4796599;29;19909;-77
2021/07/28 05:37:46;;;;;;;;;;;28.00;75.30;;;;;;4790552;30;20156;-79
2021/07/28 05:40:12;;;;;;;;;;;27.90;75.40;;;;;;4791561;30;20420;-79
2021/07/28 05:42:38;;;;;;;;;;;27.90;75.80;;;;;;4789188;30;19914;-78
2021/07/28 05:45:04;;;;;;;;;;;27.90;75.50;;;;;;4788076;30;19916;-78
2021/07/28 05:47:30;;;;;;;;;;;27.90;75.00;;;;;;4788221;30;20124;-78
2021/07/28 05:49:58;;;;;;;;;;;28.00;75.20;;;;;;4798912;30;19909;-78
2021/07/28 05:52:24;;;;;;;;;;;28.10;75.30;;;;;;4793891;30;20105;-78
2021/07/28 05:54:49;;;;;;;;;;;28.30;74.20;;;;;;4783894;30;20201;-78
2021/07/28 05:57:15;;;;;;;;;;;28.30;74.90;;;;;;4788362;29;19944;-78
2021/07/28 05:59:41;;;;;;;;;;;28.40;73.80;;;;;;4799661;30;20142;-78
2021/07/28 06:02:06;;;;;;;;;;;28.30;73.50;;;;;;4782304;29;19939;-78
2021/07/28 06:04:32;;;;;;;;;;;28.40;72.90;;;;;;4795682;30;19920;-78
2021/07/28 06:06:58;;;;;;;;;;;28.60;72.30;;;;;;4788602;30;20139;-78
2021/07/28 06:09:23;;;;;;;;;;;28.70;71.30;;;;;;4781389;30;20223;-78
2021/07/28 06:11:49;;;;;;;;;;;28.80;71.80;;;;;;4802450;29;19941;-79
2021/07/28 06:14:14;;;;;;;;;;;28.90;70.60;;;;;;4781232;30;19910;-79
2021/07/28 06:16:40;;;;;;;;;;;29.00;70.40;;;;;;4781021;30;19922;-79
2021/07/28 06:19:06;;;;;;;;;;;29.00;69.90;;;;;;4782406;30;19920;-78
2021/07/28 06:21:31;;;;;;;;;;;29.00;69.00;;;;;;4781857;30;20326;-78
2021/07/28 06:23:59;;;;;;;;;;;29.10;68.50;;;;;;4780970;30;20022;-78
2021/07/28 06:26:25;;;;;;;;;;;28.90;68.00;;;;;;4802504;29;19909;-78
2021/07/28 06:28:51;;;;;;;;;;;28.80;69.30;;;;;;4781818;30;19950;-78
2021/07/28 06:31:16;;;;;;;;;;;28.90;68.60;;;;;;4780956;30;20205;-78
2021/07/28 06:33:42;;;;;;;;;;;29.00;68.00;;;;;;4782249;30;19909;-78
2021/07/28 06:36:08;;;;;;;;;;;28.90;67.90;;;;;;4791141;30;19951;-78
2021/07/28 06:38:33;;;;;;;;;;;28.90;68.20;;;;;;4790702;30;19959;-78
2021/07/28 06:40:59;;;;;;;;;;;28.70;68.00;;;;;;4785143;30;19910;-79
2021/07/28 06:43:24;;;;;;;;;;;28.80;67.20;;;;;;4801558;29;19914;-78
2021/07/28 06:45:56;;;;;;;;;;;28.90;68.50;;;;;;4780407;30;20352;-78
2021/07/28 06:48:21;;;;;;;;;;;28.90;67.00;;;;;;4782747;30;20204;-78
2021/07/28 06:50:47;;;;;;;;;;;28.90;66.90;;;;;;4795492;29;19910;-77
2021/07/28 06:53:13;;;;;;;;;;;28.80;67.60;;;;;;4791775;30;19948;-79
2021/07/28 06:55:38;;;;;;;;;;;28.90;67.90;;;;;;4780854;30;19974;-78
2021/07/28 06:58:04;;;;;;;;;;;29.10;67.60;;;;;;4793677;30;19910;-79
2021/07/28 07:00:29;;;;;;;;;;;29.20;66.10;;;;;;4806228;29;19909;-78
2021/07/28 07:02:56;;;;;;;;;;;29.20;65.90;;;;;;4786177;29;19914;-79
2021/07/28 07:05:21;;;;;;;;;;;28.90;65.90;;;;;;4796877;30;20115;-81
2021/07/28 07:07:50;;;;;;;;;;;28.90;66.30;;;;;;4796028;30;19906;-83
2021/07/28 07:10:16;;;;;;;;;;;29.10;66.20;;;;;;4789302;30;20117;-79
2021/07/28 07:12:41;;;;;;;;;;;29.20;66.70;;;;;;4792736;30;19909;-79
2021/07/28 07:15:08;;;;;;;;;;;29.20;65.50;;;;;;4801236;30;19916;-80
2021/07/28 07:17:33;;;;;;;;;;;29.30;64.50;;;;;;4791880;30;19997;-80
2021/07/28 07:19:59;;;;;;;;;;;29.30;64.20;;;;;;4790018;30;19910;-80
2021/07/28 07:22:25;;;;;;;;;;;29.30;64.60;;;;;;4807904;29;19920;-80
2021/07/28 07:24:52;;;;;;;;;;;29.40;65.10;;;;;;4799968;30;19963;-80
2021/07/28 07:27:18;;;;;;;;;;;29.60;64.00;;;;;;4793128;30;19910;-79
2021/07/28 07:29:45;;;;;;;;;;;29.70;64.60;;;;;;4788501;30;19909;-80
2021/07/28 07:32:11;;;;;;;;;;;29.70;64.30;;;;;;4776362;30;20074;-80
2021/07/28 07:34:36;;;;;;;;;;;29.90;63.90;;;;;;4800001;30;19915;-80
2021/07/28 07:37:02;;;;;;;;;;;30.20;64.80;;;;;;4769213;30;19917;-80
2021/07/28 07:39:28;;;;;;;;;;;30.40;62.60;;;;;;4790719;30;19920;-80
2021/07/28 07:41:53;;;;;;;;;;;30.70;62.00;;;;;;4796331;30;19997;-79
2021/07/28 07:44:19;;;;;;;;;;;31.00;62.40;;;;;;4796294;30;19909;-78
2021/07/28 07:46:45;;;;;;;;;;;31.40;61.20;;;;;;4789445;30;19960;-80
2021/07/28 07:49:11;;;;;;;;;;;31.30;59.10;;;;;;4796717;29;20159;-80
2021/07/28 07:51:36;;;;;;;;;;;31.10;59.30;;;;;;4781340;30;19913;-79
2021/07/28 07:54:02;;;;;;;;;;;30.90;59.10;;;;;;4791032;30;19948;-80
2021/07/28 07:56:28;;;;;;;;;;;30.70;60.00;;;;;;4785626;30;19909;-79
2021/07/28 07:58:54;;;;;;;;;;;30.70;60.60;;;;;;4789157;30;20255;-79
2021/07/28 08:01:20;;;;;;;;;;;30.60;60.00;;;;;;4788692;30;19910;-79
2021/07/28 08:03:45;;;;;;;;;;;30.80;60.40;;;;;;4790513;30;19933;-79
2021/07/28 08:06:11;;;;;;;;;;;30.90;60.70;;;;;;4787316;30;19935;-78
2021/07/28 08:08:39;;;;;;;;;;;30.80;60.60;;;;;;4802710;30;19909;-79
2021/07/28 08:11:11;;;;;;;;;;;30.90;61.30;;;;;;4785509;30;19955;-78
2021/07/28 08:13:37;;;;;;;;;;;30.90;60.30;;;;;;4809377;29;20216;-78
2021/07/28 08:16:16;;;;;;;;;;;31.10;60.50;;;;;;4800551;29;19910;-79
2021/07/28 08:18:42;;;;;;;;;;;31.20;59.10;;;;;;4794886;30;19978;-80
2021/07/28 08:21:09;;;;;;;;;;;31.10;59.40;;;;;;4798081;30;19916;-80
2021/07/28 08:23:36;;;;;;;;;;;31.20;59.80;;;;;;4798979;29;20035;-79
2021/07/28 08:26:02;;;;;;;;;;;31.30;60.70;;;;;;4783217;29;19916;-78
2021/07/28 08:28:27;;;;;;;;;;;31.50;61.40;;;;;;4782763;30;20206;-80
2021/07/28 08:30:55;;;;;;;;;;;31.80;60.30;;;;;;4806684;29;20250;-79
2021/07/28 08:33:24;;;;;;;;;;;31.90;58.70;;;;;;4794676;30;20078;-78
2021/07/28 08:35:50;;;;;;;;;;;31.90;58.40;;;;;;4779774;30;19910;-79
2021/07/28 08:38:20;;;;;;;;;;;32.00;59.80;;;;;;4787949;30;19910;-80
2021/07/28 08:40:55;;;;;;;;;;;32.20;59.20;;;;;;4804449;29;19909;-79
2021/07/28 08:43:22;;;;;;;;;;;32.50;58.50;;;;;;4780076;30;20205;-79
2021/07/28 08:45:48;;;;;;;;;;;32.20;56.50;;;;;;4782949;30;19913;-78
2021/07/28 08:48:15;;;;;;;;;;;31.90;61.10;;;;;;4801607;29;19917;-79
2021/07/28 08:50:41;;;;;;;;;;;31.90;58.30;;;;;;4784400;30;20128;-77
2021/07/28 08:53:07;;;;;;;;;;;31.80;57.60;;;;;;4801156;29;19999;-77
2021/07/28 08:55:33;;;;;;;;;;;31.60;58.80;;;;;;4778486;30;19910;-77
2021/07/28 08:57:59;;;;;;;;;;;31.60;60.50;;;;;;4797584;29;19962;-78
2021/07/28 09:00:24;;;;;;;;;;;31.80;59.80;;;;;;4799533;29;20020;-78
2021/07/28 09:02:50;;;;;;;;;;;32.10;60.10;;;;;;4809215;29;19913;-76
2021/07/28 09:05:15;;;;;;;;;;;32.50;58.60;;;;;;4788391;30;19910;-78
2021/07/28 09:07:41;;;;;;;;;;;32.70;59.10;;;;;;4797882;29;19929;-78
2021/07/28 09:10:11;;;;;;;;;;;33.00;57.00;;;;;;4784629;30;19973;-78
2021/07/28 09:12:37;;;;;;;;;;;33.00;54.90;;;;;;4781146;30;19916;-79
2021/07/28 09:15:05;;;;;;;;;;;32.80;55.50;;;;;;4785514;30;19938;-77
2021/07/28 09:17:35;;;;;;;;;;;32.80;57.70;;;;;;4785665;30;19925;-77
2021/07/28 09:20:01;;;;;;;;;;;33.10;57.00;;;;;;4786183;30;19910;-78
2021/07/28 09:22:35;;;;;;;;;;;33.10;55.40;;;;;;4789255;30;19913;-78
2021/07/28 09:25:22;;;;;;;;;;;33.10;56.40;;;;;;4804340;30;19953;-79
2021/07/28 09:27:51;;;;;;;;;;;33.10;55.50;;;;;;4788359;30;20548;-78
2021/07/28 09:30:23;;;;;;;;;;;33.00;55.90;;;;;;4789332;30;20232;-77
2021/07/28 09:32:59;;;;;;;;;;;33.20;56.50;;;;;;4802436;29;19910;-77
2021/07/28 09:35:45;;;;;;;;;;;33.30;56.00;;;;;;4780187;30;19911;-77
2021/07/28 09:38:11;;;;;;;;;;;33.60;56.00;;;;;;4780614;30;19924;-77
2021/07/28 09:40:36;;;;;;;;;;;33.70;56.50;;;;;;4780313;30;19910;-77
2021/07/28 09:43:05;;;;;;;;;;;33.80;56.50;;;;;;4785348;29;19981;-77
2021/07/28 09:45:30;;;;;;;;;;;33.70;55.40;;;;;;4799719;30;19917;-78
2021/07/28 09:47:56;;;;;;;;;;;33.60;54.00;;;;;;4810074;29;19913;-77
2021/07/28 09:50:22;;;;;;;;;;;33.60;54.20;;;;;;4797206;30;19917;-77
2021/07/28 09:52:51;;;;;;;;;;;33.80;54.60;;;;;;4793782;29;19910;-78
2021/07/28 09:55:22;;;;;;;;;;;33.80;55.80;;;;;;4781392;30;19910;-79
2021/07/28 09:57:53;;;;;;;;;;;33.90;55.20;;;;;;4780462;30;20081;-77
2021/07/28 10:00:18;;;;;;;;;;;33.80;52.00;;;;;;4783351;30;19910;-77
2021/07/28 10:02:45;;;;;;;;;;;33.80;54.80;;;;;;4783827;30;20147;-77
2021/07/28 10:05:11;;;;;;;;;;;34.00;54.10;;;;;;4792737;29;19917;-77
2021/07/28 10:07:37;;;;;;;;;;;33.90;55.00;;;;;;4787740;30;19926;-78
2021/07/28 10:10:04;;;;;;;;;;;33.70;54.30;;;;;;4788510;30;19941;-77
2021/07/28 10:12:31;;;;;;;;;;;33.70;55.10;;;;;;4803486;29;19917;-78
2021/07/28 10:14:57;;;;;;;;;;;33.80;53.50;;;;;;4791790;30;19910;-77
2021/07/28 10:17:23;;;;;;;;;;;33.80;52.40;;;;;;4782663;30;19941;-77
2021/07/28 10:19:49;;;;;;;;;;;33.90;53.40;;;;;;4789144;29;20252;-77
2021/07/28 10:22:16;;;;;;;;;;;33.90;52.90;;;;;;4785813;30;19963;-77
2021/07/28 10:24:45;;;;;;;;;;;34.20;52.50;;;;;;4782226;30;20113;-77
2021/07/28 10:27:11;;;;;;;;;;;34.40;53.50;;;;;;4786468;30;19910;-77
2021/07/28 10:29:37;;;;;;;;;;;34.40;50.80;;;;;;4787047;30;19925;-75
2021/07/28 10:32:03;;;;;;;;;;;34.30;52.60;;;;;;4784184;30;19953;-76
2021/07/28 10:34:33;;;;;;;;;;;34.30;51.00;;;;;;4791577;30;19909;-75
2021/07/28 10:37:04;;;;;;;;;;;34.40;52.00;;;;;;4791840;30;19953;-76
2021/07/28 10:39:33;;;;;;;;;;;34.70;52.40;;;;;;4789680;30;19909;-77
2021/07/28 10:41:58;;;;;;;;;;;34.70;49.40;;;;;;4795144;29;19920;-76
2021/07/28 10:44:26;;;;;;;;;;;34.70;49.30;;;;;;4789529;30;19909;-76
2021/07/28 10:46:52;;;;;;;;;;;34.70;49.70;;;;;;4781298;30;19917;-76
2021/07/28 10:49:34;;;;;;;;;;;34.70;49.90;;;;;;4789993;30;19932;-77
2021/07/28 10:52:00;;;;;;;;;;;34.70;51.10;;;;;;4768378;30;19959;-76
2021/07/28 10:54:44;;;;;;;;;;;34.90;49.60;;;;;;4796395;29;19916;-78
2021/07/28 10:57:30;;;;;;;;;;;34.80;49.50;;;;;;4786039;30;19909;-77
2021/07/28 10:59:56;;;;;;;;;;;35.00;51.10;;;;;;4782077;30;19910;-76
2021/07/28 11:02:22;;;;;;;;;;;34.90;50.20;;;;;;4759482;30;19944;-76
2021/07/28 11:05:07;;;;;;;;;;;34.70;50.20;;;;;;4785840;30;19910;-77
2021/07/28 11:07:52;;;;;;;;;;;34.60;50.00;;;;;;4777781;30;19910;-77
2021/07/28 11:10:20;;;;;;;;;;;34.60;50.80;;;;;;4769183;30;19920;-77
2021/07/28 11:12:46;;;;;;;;;;;34.60;49.30;;;;;;4763825;30;19929;-76
2021/07/28 11:15:16;;;;;;;;;;;34.60;51.10;;;;;;4778620;30;19921;-76
2021/07/28 11:17:43;;;;;;;;;;;34.70;51.90;;;;;;4778280;30;19910;-76
2021/07/28 11:20:09;;;;;;;;;;;34.90;50.00;;;;;;4778375;30;20058;-77
2021/07/28 11:22:35;;;;;;;;;;;34.90;47.90;;;;;;4784305;30;19917;-77
2021/07/28 11:25:00;;;;;;;;;;;34.70;48.60;;;;;;4790797;30;20228;-77
2021/07/28 11:27:26;;;;;;;;;;;34.80;50.60;;;;;;4786461;30;20024;-78
2021/07/28 11:30:10;;;;;;;;;;;35.00;50.80;;;;;;4785578;30;19940;-76
2021/07/28 11:32:39;;;;;;;;;;;35.10;48.50;;;;;;4795394;30;20283;-76
2021/07/28 11:35:05;;;;;;;;;;;34.90;48.20;;;;;;4785401;30;20021;-76
2021/07/28 11:37:31;;;;;;;;;;;34.90;50.50;;;;;;4779623;30;19909;-76
2021/07/28 11:39:58;;;;;;;;;;;35.10;50.40;;;;;;4801940;29;20023;-76
2021/07/28 11:42:28;;;;;;;;;;;35.40;51.40;;;;;;4787421;30;19995;-76
2021/07/28 11:44:53;;;;;;;;;;;35.00;49.00;;;;;;4796999;29;19910;-76
2021/07/28 11:47:23;;;;;;;;;;;34.40;49.00;;;;;;4797224;30;19923;-76
2021/07/28 11:50:01;;;;;;;;;;;34.20;52.20;;;;;;4780529;30;19933;-76
2021/07/28 11:52:27;;;;;;;;;;;34.30;51.70;;;;;;4770467;30;19910;-76
2021/07/28 11:54:53;;;;;;;;;;;34.20;51.50;;;;;;4796775;30;19915;-76
2021/07/28 11:57:18;;;;;;;;;;;33.90;51.10;;;;;;4785636;30;19906;-77
2021/07/28 11:59:44;;;;;;;;;;;33.60;51.80;;;;;;4782177;30;19917;-76
2021/07/28 12:02:18;;;;;;;;;;;33.40;52.90;;;;;;4796417;29;19920;-77
2021/07/28 12:04:46;;;;;;;;;;;33.20;52.50;;;;;;4788931;29;19914;-77
2021/07/28 12:07:12;;;;;;;;;;;33.10;52.60;;;;;;4779013;30;20214;-77
2021/07/28 12:09:38;;;;;;;;;;;33.10;53.40;;;;;;4785101;30;19910;-77
2021/07/28 12:12:05;;;;;;;;;;;33.40;54.60;;;;;;4796499;30;20015;-77
2021/07/28 12:14:31;;;;;;;;;;;33.80;53.40;;;;;;4784861;30;19922;-77
2021/07/28 12:16:58;;;;;;;;;;;34.00;51.50;;;;;;4811438;29;19909;-77
2021/07/28 12:19:24;;;;;;;;;;;34.20;51.00;;;;;;4784720;30;19936;-77
2021/07/28 12:21:54;;;;;;;;;;;34.40;53.00;;;;;;4784417;30;19914;-78
2021/07/28 12:24:33;;;;;;;;;;;34.70;51.00;;;;;;4786018;30;19913;-77
2021/07/28 12:27:18;;;;;;;;;;;35.00;51.30;;;;;;4789454;29;19945;-77
2021/07/28 12:29:55;;;;;;;;;;;35.10;50.10;;;;;;4790860;30;19909;-77
2021/07/28 12:32:32;;;;;;;;;;;35.20;50.80;;;;;;4784805;30;19990;-77
2021/07/28 12:34:57;;;;;;;;;;;35.40;50.10;;;;;;4789196;30;19909;-78
2021/07/28 12:37:26;;;;;;;;;;;35.60;49.50;;;;;;4787002;30;19913;-77
2021/07/28 12:39:55;;;;;;;;;;;35.70;50.20;;;;;;4785282;30;19917;-77
2021/07/28 12:42:21;;;;;;;;;;;35.70;50.70;;;;;;4790258;30;19913;-77
2021/07/28 12:44:46;;;;;;;;;;;35.70;49.30;;;;;;4789514;30;19917;-78
2021/07/28 12:47:12;;;;;;;;;;;35.50;49.60;;;;;;4785179;30;19959;-77
2021/07/28 12:49:38;;;;;;;;;;;35.40;50.50;;;;;;4777264;29;19917;-77
2021/07/28 12:52:04;;;;;;;;;;;35.40;49.20;;;;;;4782803;30;20133;-78
2021/07/28 12:54:30;;;;;;;;;;;35.40;48.30;;;;;;4784009;30;19913;-77
2021/07/28 12:56:55;;;;;;;;;;;35.40;49.20;;;;;;4805604;29;19910;-77
2021/07/28 12:59:21;;;;;;;;;;;35.40;49.20;;;;;;4798045;30;20558;-78
2021/07/28 13:01:47;;;;;;;;;;;35.60;49.50;;;;;;4780163;30;19921;-79
2021/07/28 13:04:14;;;;;;;;;;;35.70;49.50;;;;;;4804336;29;19934;-79
2021/07/28 13:06:46;;;;;;;;;;;35.70;49.60;;;;;;4784789;30;19935;-78
2021/07/28 13:09:12;;;;;;;;;;;35.60;47.30;;;;;;4790583;30;19910;-79
2021/07/28 13:11:38;;;;;;;;;;;35.30;48.60;;;;;;4793929;30;20117;-77
2021/07/28 13:14:03;;;;;;;;;;;35.40;49.10;;;;;;4803993;29;19910;-77
2021/07/28 13:16:29;;;;;;;;;;;35.60;50.10;;;;;;4798448;30;19972;-77
2021/07/28 13:18:54;;;;;;;;;;;35.70;49.20;;;;;;4799457;29;19912;-78
2021/07/28 13:21:20;;;;;;;;;;;35.80;46.20;;;;;;4789813;30;19974;-79
2021/07/28 13:23:46;;;;;;;;;;;35.70;45.50;;;;;;4803755;29;19913;-78
2021/07/28 13:26:12;;;;;;;;;;;35.70;46.00;;;;;;4790026;30;19971;-80
2021/07/28 13:28:37;;;;;;;;;;;35.70;46.40;;;;;;4788930;30;20180;-78
2021/07/28 13:31:05;;;;;;;;;;;35.70;48.00;;;;;;4790884;30;19945;-80
2021/07/28 13:33:31;;;;;;;;;;;35.90;47.00;;;;;;4782865;30;19917;-80
2021/07/28 13:35:56;;;;;;;;;;;36.10;46.10;;;;;;4785429;30;20192;-79
2021/07/28 13:38:22;;;;;;;;;;;36.10;46.30;;;;;;4796035;29;19982;-78
2021/07/28 13:40:48;;;;;;;;;;;36.20;46.40;;;;;;4787526;30;19910;-78
2021/07/28 13:43:13;;;;;;;;;;;36.20;45.30;;;;;;4805003;29;19922;-80
2021/07/28 13:45:40;;;;;;;;;;;36.20;45.70;;;;;;4786426;30;19921;-79
2021/07/28 13:48:08;;;;;;;;;;;36.10;44.40;;;;;;4789348;30;19909;-80
2021/07/28 13:50:34;;;;;;;;;;;36.10;45.20;;;;;;4787983;30;19910;-79
2021/07/28 13:53:00;;;;;;;;;;;36.10;46.70;;;;;;4797124;29;19916;-77
2021/07/28 13:55:25;;;;;;;;;;;36.10;46.20;;;;;;4796207;29;19912;-77
2021/07/28 13:57:51;;;;;;;;;;;36.10;45.00;;;;;;4798280;29;19910;-78
2021/07/28 14:00:17;;;;;;;;;;;35.90;45.60;;;;;;4813332;29;19916;-78
2021/07/28 14:02:46;;;;;;;;;;;35.90;47.30;;;;;;4791213;30;19913;-80
2021/07/28 14:05:12;;;;;;;;;;;35.90;45.50;;;;;;4781513;30;19941;-78
2021/07/28 14:07:38;;;;;;;;;;;35.80;47.20;;;;;;4799265;30;19909;-78
2021/07/28 14:10:04;;;;;;;;;;;36.00;47.00;;;;;;4788358;30;20185;-78
2021/07/28 14:12:31;;;;;;;;;;;36.30;45.30;;;;;;4789398;30;19909;-79
2021/07/28 14:14:59;;;;;;;;;;;36.30;45.20;;;;;;4808586;29;19910;-79
2021/07/28 14:17:25;;;;;;;;;;;36.30;44.50;;;;;;4788539;30;19959;-78
2021/07/28 14:19:51;;;;;;;;;;;36.00;44.80;;;;;;4795632;30;19917;-80
2021/07/28 14:22:16;;;;;;;;;;;35.70;46.10;;;;;;4792492;29;19913;-79
2021/07/28 14:24:42;;;;;;;;;;;35.50;46.80;;;;;;4795084;30;19968;-79
2021/07/28 14:27:08;;;;;;;;;;;35.30;45.10;;;;;;4780235;30;20136;-79
2021/07/28 14:29:34;;;;;;;;;;;35.20;45.60;;;;;;4792511;30;19961;-78
2021/07/28 14:31:59;;;;;;;;;;;35.20;48.30;;;;;;4769688;30;19917;-78
2021/07/28 14:34:25;;;;;;;;;;;35.40;47.70;;;;;;4812875;29;19929;-79
2021/07/28 14:36:51;;;;;;;;;;;35.60;47.10;;;;;;4790853;30;19924;-79
2021/07/28 14:39:18;;;;;;;;;;;35.60;47.90;;;;;;4802684;29;19910;-79
2021/07/28 14:41:44;;;;;;;;;;;35.70;48.10;;;;;;4779221;30;19906;-79
2021/07/28 14:44:10;;;;;;;;;;;35.70;46.50;;;;;;4782707;30;19925;-79
2021/07/28 14:46:35;;;;;;;;;;;35.70;46.40;;;;;;4794980;29;19918;-78
2021/07/28 14:49:04;;;;;;;;;;;35.70;46.20;;;;;;4797060;30;19932;-77
2021/07/28 14:51:31;;;;;;;;;;;35.70;44.70;;;;;;4791355;29;19909;-79
2021/07/28 14:53:57;;;;;;;;;;;35.40;46.90;;;;;;4793853;30;19913;-76
2021/07/28 14:56:23;;;;;;;;;;;35.20;45.20;;;;;;4781648;30;20539;-77
2021/07/28 14:58:48;;;;;;;;;;;35.00;45.80;;;;;;4797755;29;19916;-77
2021/07/28 15:01:14;;;;;;;;;;;34.80;46.20;;;;;;4792190;29;19970;-79
2021/07/28 15:03:41;;;;;;;;;;;34.60;45.10;;;;;;4788463;30;20150;-79
2021/07/28 15:06:07;;;;;;;;;;;34.50;46.60;;;;;;4786797;30;20221;-80
2021/07/28 15:08:33;;;;;;;;;;;34.40;46.50;;;;;;4797990;29;19945;-79
2021/07/28 15:11:00;;;;;;;;;;;34.30;46.70;;;;;;4793977;30;19905;-82
2021/07/28 15:13:26;;;;;;;;;;;34.20;47.60;;;;;;4793476;30;20197;-79
2021/07/28 15:15:51;;;;;;;;;;;34.10;47.90;;;;;;4790752;30;19920;-76
2021/07/28 15:18:17;;;;;;;;;;;34.00;46.90;;;;;;4786748;30;19910;-76
2021/07/28 15:20:42;;;;;;;;;;;34.00;46.70;;;;;;4778668;30;19913;-75
2021/07/28 15:23:08;;;;;;;;;;;33.90;46.70;;;;;;4779972;30;19913;-77
2021/07/28 15:25:34;;;;;;;;;;;33.80;48.20;;;;;;4781674;30;20108;-77
2021/07/28 15:28:00;;;;;;;;;;;33.70;49.30;;;;;;4783538;30;19952;-76
2021/07/28 15:30:26;;;;;;;;;;;33.60;49.30;;;;;;4783556;29;19980;-77
2021/07/28 15:32:52;;;;;;;;;;;33.50;50.70;;;;;;4784402;30;19917;-76
2021/07/28 15:35:19;;;;;;;;;;;33.40;50.10;;;;;;4779199;30;19913;-76
2021/07/28 15:37:44;;;;;;;;;;;33.40;51.00;;;;;;4782240;30;19917;-76
2021/07/28 15:40:11;;;;;;;;;;;33.30;48.90;;;;;;4782826;30;19955;-77
2021/07/28 15:42:44;;;;;;;;;;;33.20;48.00;;;;;;4785243;30;20411;-76
2021/07/28 15:45:13;;;;;;;;;;;33.10;48.20;;;;;;4777561;30;19910;-76
2021/07/28 15:47:39;;;;;;;;;;;33.10;48.00;;;;;;4783997;30;19924;-76
2021/07/28 15:50:06;;;;;;;;;;;33.00;50.80;;;;;;4788229;30;19917;-76
2021/07/28 15:52:32;;;;;;;;;;;32.90;50.00;;;;;;4781700;30;19918;-76
2021/07/28 15:55:00;;;;;;;;;;;32.80;49.90;;;;;;4781246;30;19990;-77
2021/07/28 15:57:26;;;;;;;;;;;32.80;49.90;;;;;;4802803;29;20201;-76
2021/07/28 15:59:52;;;;;;;;;;;32.70;50.70;;;;;;4799527;29;19909;-77
2021/07/28 16:02:17;;;;;;;;;;;32.50;49.20;;;;;;4784570;30;20201;-77
2021/07/28 16:04:43;;;;;;;;;;;32.00;53.20;;;;;;4783232;29;19917;-76
2021/07/28 16:07:09;;;;;;;;;;;31.00;55.10;;;;;;4785900;30;19958;-75
2021/07/28 16:09:35;;;;;;;;;;;30.10;57.10;;;;;;4779189;30;19953;-75
2021/07/28 16:12:00;;;;;;;;;;;29.40;59.50;;;;;;4778793;30;20329;-74
2021/07/28 16:14:36;;;;;;;;;;;28.90;61.50;;;;;;4784810;30;19910;-77
2021/07/28 16:17:03;;;;;;;;;;;28.60;62.80;;;;;;4785276;30;20116;-75
2021/07/28 16:19:30;;;;;;;;;;;28.30;64.80;;;;;;4792469;29;19911;-77
2021/07/28 16:21:56;;;;;;;;;;;27.80;70.60;;;;;;4783416;30;19914;-79
2021/07/28 16:24:26;;;;;;;;;;;26.90;76.50;;;;;;4784631;30;19917;-77
2021/07/28 16:26:52;;;;;;;;;;;26.00;82.10;;;;;;4795912;29;19913;-79
2021/07/28 16:29:17;;;;;;;;;;;25.30;85.90;;;;;;4797949;30;20290;-81
2021/07/28 16:31:43;;;;;;;;;;;24.70;91.00;;;;;;4786213;30;19973;-79
2021/07/28 16:34:09;;;;;;;;;;;24.30;92.20;;;;;;4798974;30;19976;-79
2021/07/28 16:36:35;;;;;;;;;;;24.00;93.30;;;;;;4783785;30;19910;-78
2021/07/28 16:39:01;;;;;;;;;;;23.80;93.60;;;;;;4809469;29;19937;-78
2021/07/28 16:41:27;;;;;;;;;;;23.80;93.60;;;;;;4801774;30;19931;-79
2021/07/28 16:43:52;;;;;;;;;;;23.70;94.20;;;;;;4790942;30;19959;-78
2021/07/28 16:46:18;;;;;;;;;;;23.60;94.20;;;;;;4791160;30;19957;-77
2021/07/28 16:48:43;;;;;;;;;;;23.50;94.30;;;;;;4801108;29;19909;-77
2021/07/28 16:51:10;;;;;;;;;;;23.50;93.80;;;;;;4790573;30;19913;-77
2021/07/28 16:53:35;;;;;;;;;;;23.40;94.40;;;;;;4784800;30;20508;-78
2021/07/28 16:56:01;;;;;;;;;;;23.40;94.40;;;;;;4779742;30;19918;-79
2021/07/28 16:58:27;;;;;;;;;;;23.40;94.70;;;;;;4788875;30;19932;-78